createdAt,value
2019-04-28T00:02:15.662Z,6.40
2019-04-28T00:05:21.105Z,6.40
2019-04-28T00:08:25.622Z,6.40
2019-04-28T00:11:31.675Z,6.40
2019-04-28T00:14:36.560Z,6.50
2019-04-28T00:17:41.988Z,6.70
2019-04-28T00:20:46.272Z,6.80
2019-04-28T00:23:53.173Z,6.80
2019-04-28T00:26:59.289Z,7.00
2019-04-28T00:30:07.374Z,7.10
2019-04-28T00:33:11.797Z,7.20
2019-04-28T00:36:16.645Z,7.20
2019-04-28T00:39:22.694Z,7.30
2019-04-28T00:42:27.283Z,7.30
2019-04-28T00:45:31.963Z,7.30
2019-04-28T00:48:36.387Z,7.30
2019-04-28T00:51:41.546Z,7.30
2019-04-28T00:54:47.201Z,7.30
2019-04-28T00:57:51.907Z,7.30
2019-04-28T01:01:07.924Z,7.30
2019-04-28T01:04:12.426Z,7.30
2019-04-28T01:07:16.867Z,7.20
2019-04-28T01:10:22.335Z,7.10
2019-04-28T01:13:26.759Z,7.00
2019-04-28T01:16:36.079Z,7.10
2019-04-28T01:19:54.249Z,7.10
2019-04-28T01:23:00.469Z,7.00
2019-04-28T01:26:05.083Z,6.90
2019-04-28T01:29:09.932Z,7.00
2019-04-28T01:32:32.169Z,7.00
2019-04-28T01:35:37.003Z,7.00
2019-04-28T01:38:41.737Z,6.90
2019-04-28T01:41:46.168Z,7.10
2019-04-28T01:44:50.595Z,7.20
2019-04-28T01:47:55.318Z,7.20
2019-04-28T01:51:00.049Z,7.20
2019-04-28T01:54:04.780Z,7.00
2019-04-28T01:57:10.141Z,7.00
2019-04-28T02:00:23.064Z,6.90
2019-04-28T02:03:21.859Z,6.90
2019-04-28T02:06:26.294Z,7.00
2019-04-28T02:09:30.718Z,6.90
2019-04-28T02:12:35.520Z,6.90
2019-04-28T02:15:40.247Z,6.80
2019-04-28T02:18:44.682Z,6.70
2019-04-28T02:21:51.042Z,6.70
2019-04-28T02:24:55.474Z,6.70
2019-04-28T02:27:59.908Z,6.70
2019-04-28T02:31:04.336Z,6.90
2019-04-28T02:34:11.217Z,7.00
2019-04-28T02:37:15.205Z,7.10
2019-04-28T02:40:20.755Z,7.30
2019-04-28T02:43:25.695Z,7.40
2019-04-28T02:46:30.877Z,7.30
2019-04-28T02:49:55.630Z,7.20
2019-04-28T02:53:02.206Z,7.00
2019-04-28T02:56:06.812Z,7.00
2019-04-28T02:59:11.255Z,6.90
2019-04-28T03:02:15.986Z,6.90
2019-04-28T03:05:21.659Z,6.80
2019-04-28T03:08:26.445Z,6.60
2019-04-28T03:11:31.572Z,6.40
2019-04-28T03:14:36.072Z,6.30
2019-04-28T03:17:40.940Z,6.30
2019-04-28T03:20:45.582Z,6.30
2019-04-28T03:23:51.614Z,6.30
2019-04-28T03:27:03.519Z,6.20
2019-04-28T03:30:25.676Z,6.10
2019-04-28T03:33:34.111Z,6.10
2019-04-28T03:36:37.711Z,5.90
2019-04-28T03:39:42.149Z,5.80
2019-04-28T03:42:46.877Z,5.80
2019-04-28T03:45:53.252Z,5.70
2019-04-28T03:48:57.689Z,5.70
2019-04-28T03:52:03.614Z,5.70
2019-04-28T03:55:08.461Z,5.90
2019-04-28T03:58:13.401Z,5.90
2019-04-28T04:01:20.438Z,6.00
2019-04-28T04:04:24.287Z,6.00
2019-04-28T04:07:31.106Z,6.00
2019-04-28T04:10:40.613Z,5.90
2019-04-28T04:13:51.352Z,5.90
2019-04-28T04:17:02.729Z,5.80
2019-04-28T04:20:11.007Z,5.80
2019-04-28T04:23:14.759Z,5.80
2019-04-28T04:26:21.288Z,5.70
2019-04-28T04:29:25.350Z,5.70
2019-04-28T04:32:30.480Z,5.60
2019-04-28T04:35:36.586Z,5.50
2019-04-28T04:38:45.827Z,5.60
2019-04-28T04:41:47.487Z,5.60
2019-04-28T04:44:51.929Z,5.50
2019-04-28T04:47:56.341Z,5.60
2019-04-28T04:51:00.836Z,5.70
2019-04-28T04:54:05.283Z,5.80
2019-04-28T04:57:11.077Z,5.90
2019-04-28T05:00:18.016Z,5.90
2019-04-28T05:03:33.188Z,5.90
2019-04-28T05:06:39.952Z,5.90
2019-04-28T05:09:45.723Z,6.00
2019-04-28T05:12:51.820Z,6.10
2019-04-28T05:15:56.722Z,6.30
2019-04-28T05:19:01.146Z,6.40
2019-04-28T05:22:06.218Z,6.40
2019-04-28T05:25:15.322Z,6.40
2019-04-28T05:28:20.047Z,6.40
2019-04-28T05:31:24.800Z,6.50
2019-04-28T05:34:29.731Z,6.40
2019-04-28T05:37:34.319Z,6.40
2019-04-28T05:40:39.870Z,6.30
2019-04-28T05:43:44.725Z,6.10
2019-04-28T05:46:50.643Z,6.10
2019-04-28T05:50:00.255Z,6.30
2019-04-28T05:53:06.466Z,6.60
2019-04-28T05:56:15.106Z,6.80
2019-04-28T05:59:23.832Z,7.00
2019-04-28T06:02:32.983Z,7.20
2019-04-28T06:05:46.104Z,7.30
2019-04-28T06:09:04.126Z,7.50
2019-04-28T06:12:10.516Z,7.70
2019-04-28T06:15:14.954Z,8.00
2019-04-28T06:18:20.575Z,8.20
2019-04-28T06:21:25.189Z,8.80
2019-04-28T06:24:29.623Z,10.10
2019-04-28T06:27:34.375Z,11.30
2019-04-28T06:30:38.829Z,12.70
2019-04-28T06:33:44.566Z,13.70
2019-04-28T06:36:49.102Z,14.10
2019-04-28T06:39:53.536Z,14.50
2019-04-28T06:42:58.258Z,14.40
2019-04-28T06:46:02.681Z,13.90
2019-04-28T06:49:07.120Z,12.90
2019-04-28T06:52:11.566Z,12.30
2019-04-28T06:55:16.068Z,12.10
2019-04-28T06:58:20.764Z,12.10
2019-04-28T07:01:25.253Z,12.00
2019-04-28T07:04:29.690Z,11.90
2019-04-28T07:07:34.136Z,12.00
2019-04-28T07:10:39.011Z,11.80
2019-04-28T07:13:43.701Z,11.40
2019-04-28T07:16:48.433Z,11.10
2019-04-28T07:19:54.519Z,10.60
2019-04-28T07:22:58.964Z,10.40
2019-04-28T07:26:03.645Z,10.20
2019-04-28T07:29:08.084Z,10.00
2019-04-28T07:32:12.520Z,9.90
2019-04-28T07:35:16.954Z,9.90
2019-04-28T07:38:21.648Z,9.80
2019-04-28T07:41:26.079Z,9.90
2019-04-28T07:44:30.525Z,10.20
2019-04-28T07:47:35.232Z,10.70
2019-04-28T07:50:39.665Z,11.20
2019-04-28T07:53:45.744Z,11.40
2019-04-28T07:56:50.187Z,11.30
2019-04-28T07:59:54.630Z,11.30
2019-04-28T08:02:59.595Z,11.50
2019-04-28T08:06:04.037Z,11.40
2019-04-28T08:09:10.494Z,10.90
2019-04-28T08:12:14.933Z,10.60
2019-04-28T08:15:19.378Z,10.10
2019-04-28T08:18:23.810Z,9.90
2019-04-28T08:21:28.493Z,9.80
2019-04-28T08:24:32.937Z,10.00
2019-04-28T08:27:37.383Z,10.20
2019-04-28T08:30:41.824Z,10.70
2019-04-28T08:34:01.857Z,11.30
2019-04-28T08:36:57.471Z,11.70
2019-04-28T08:40:01.919Z,11.80
2019-04-28T08:43:06.440Z,11.80
2019-04-28T08:46:11.151Z,12.40
2019-04-28T08:49:15.887Z,12.60
2019-04-28T08:52:20.613Z,12.80
2019-04-28T08:55:25.058Z,12.80
2019-04-28T08:58:29.507Z,13.00
2019-04-28T09:01:33.942Z,12.60
2019-04-28T09:04:38.720Z,12.10
2019-04-28T09:07:43.155Z,11.80
2019-04-28T09:10:47.877Z,11.40
2019-04-28T09:13:52.604Z,11.10
2019-04-28T09:16:57.333Z,11.00
2019-04-28T09:20:02.067Z,10.90
2019-04-28T09:23:06.505Z,10.90
2019-04-28T09:26:10.949Z,10.90
2019-04-28T09:29:15.396Z,10.90
2019-04-28T09:32:20.170Z,11.10
2019-04-28T09:35:24.620Z,11.40
2019-04-28T09:38:29.056Z,11.70
2019-04-28T09:41:34.774Z,12.00
2019-04-28T09:44:39.218Z,12.40
2019-04-28T09:47:43.926Z,12.80
2019-04-28T09:50:48.369Z,13.40
2019-04-28T09:53:52.804Z,13.60
2019-04-28T09:56:57.310Z,13.60
2019-04-28T10:00:01.765Z,13.40
2019-04-28T10:03:06.459Z,13.00
2019-04-28T10:06:11.180Z,12.70
2019-04-28T10:09:15.913Z,12.60
2019-04-28T10:12:26.870Z,12.20
2019-04-28T10:15:26.700Z,12.00
2019-04-28T10:18:31.375Z,11.60
2019-04-28T10:21:36.991Z,11.40
2019-04-28T10:24:41.719Z,11.20
2019-04-28T10:27:46.514Z,11.10
2019-04-28T10:30:50.965Z,10.90
2019-04-28T10:33:57.040Z,10.90
2019-04-28T10:37:01.770Z,10.80
2019-04-28T10:40:11.317Z,10.80
2019-04-28T10:43:15.752Z,10.80
2019-04-28T10:46:20.197Z,10.80
2019-04-28T10:49:25.306Z,10.90
2019-04-28T10:52:29.745Z,10.90
2019-04-28T10:55:34.188Z,11.00
2019-04-28T10:58:39.093Z,11.10
2019-04-28T11:01:43.821Z,11.20
2019-04-28T11:04:50.181Z,11.10
2019-04-28T11:07:56.175Z,11.00
2019-04-28T11:11:02.302Z,10.80
2019-04-28T11:14:06.740Z,10.60
2019-04-28T11:17:11.456Z,10.60
2019-04-28T11:20:16.039Z,10.50
2019-04-28T11:23:23.175Z,10.60
2019-04-28T11:26:26.982Z,10.60
2019-04-28T11:29:31.418Z,10.70
2019-04-28T11:32:36.754Z,10.70
2019-04-28T11:35:42.865Z,10.80
2019-04-28T11:38:47.299Z,10.90
2019-04-28T11:41:52.072Z,10.90
2019-04-28T11:44:56.804Z,10.90
2019-04-28T11:48:01.242Z,10.80
2019-04-28T11:51:06.061Z,10.90
2019-04-28T11:54:10.496Z,10.70
2019-04-28T11:57:14.937Z,10.50
2019-04-28T12:00:21.247Z,10.40
2019-04-28T12:03:25.716Z,10.30
2019-04-28T12:06:30.429Z,10.40
2019-04-28T12:09:45.446Z,10.50
2019-04-28T12:12:49.923Z,10.60
2019-04-28T12:15:58.959Z,10.70
2019-04-28T12:19:05.043Z,10.60
2019-04-28T12:22:09.753Z,10.80
2019-04-28T12:25:15.191Z,11.00
2019-04-28T12:28:19.925Z,11.00
2019-04-28T12:31:24.698Z,10.90
2019-04-28T12:34:29.123Z,10.90
2019-04-28T12:37:33.575Z,10.90
2019-04-28T12:40:38.339Z,11.00
2019-04-28T12:43:42.786Z,11.10
2019-04-28T12:46:47.241Z,11.50
2019-04-28T12:49:53.656Z,12.00
2019-04-28T12:52:58.096Z,12.40
2019-04-28T12:56:02.611Z,12.90
2019-04-28T12:59:14.333Z,13.40
2019-04-28T13:02:23.395Z,13.60
2019-04-28T13:05:28.178Z,13.60
2019-04-28T13:08:32.630Z,13.80
2019-04-28T13:11:37.318Z,14.10
2019-04-28T13:14:42.049Z,14.30
2019-04-28T13:17:46.493Z,14.60
2019-04-28T13:20:51.203Z,14.60
2019-04-28T13:23:55.648Z,14.90
2019-04-28T13:27:00.357Z,15.20
2019-04-28T13:30:07.441Z,15.00
2019-04-28T13:33:11.891Z,15.10
2019-04-28T13:36:16.706Z,15.20
2019-04-28T13:39:31.982Z,15.20
2019-04-28T13:42:36.711Z,15.20
2019-04-28T13:45:41.439Z,15.50
2019-04-28T13:48:45.914Z,15.40
2019-04-28T13:51:50.313Z,14.90
2019-04-28T13:55:05.193Z,14.70
2019-04-28T13:58:09.649Z,15.00
2019-04-28T14:01:21.367Z,14.80
2019-04-28T14:04:36.447Z,15.00
2019-04-28T14:07:40.875Z,15.30
2019-04-28T14:10:45.309Z,15.80
2019-04-28T14:13:50.036Z,16.30
2019-04-28T14:16:54.800Z,16.70
2019-04-28T14:19:59.495Z,16.40
2019-04-28T14:23:03.987Z,15.90
2019-04-28T14:26:08.747Z,15.50
2019-04-28T14:29:13.188Z,15.40
2019-04-28T14:32:17.626Z,15.80
2019-04-28T14:35:22.149Z,16.30
2019-04-28T14:38:27.748Z,16.80
2019-04-28T14:41:32.500Z,17.20
2019-04-28T14:44:36.999Z,17.50
2019-04-28T14:47:41.669Z,17.50
2019-04-28T14:50:46.101Z,17.40
2019-04-28T14:53:50.918Z,17.30
2019-04-28T14:56:55.644Z,17.30
2019-04-28T15:00:00.092Z,17.50
2019-04-28T15:03:06.438Z,17.70
2019-04-28T15:06:12.519Z,17.80
2019-04-28T15:09:25.176Z,17.80
2019-04-28T15:12:30.031Z,18.00
2019-04-28T15:15:34.479Z,17.70
2019-04-28T15:18:38.901Z,17.20
2019-04-28T15:21:43.346Z,16.60
2019-04-28T15:24:47.804Z,16.00
2019-04-28T15:27:52.576Z,15.60
2019-04-28T15:30:57.014Z,15.10
2019-04-28T15:34:01.452Z,14.70
2019-04-28T15:37:10.137Z,14.40
2019-04-28T15:40:12.272Z,14.20
2019-04-28T15:43:16.710Z,14.00
2019-04-28T15:46:21.152Z,13.90
2019-04-28T15:49:25.599Z,13.80
2019-04-28T15:52:30.035Z,13.70
2019-04-28T15:55:36.382Z,13.80
2019-04-28T15:58:41.115Z,13.80
2019-04-28T16:01:46.037Z,13.90
2019-04-28T16:04:50.778Z,14.00
2019-04-28T16:07:55.209Z,13.90
2019-04-28T16:10:59.648Z,14.00
2019-04-28T16:14:04.085Z,14.00
2019-04-28T16:17:08.527Z,14.00
2019-04-28T16:20:13.303Z,14.00
2019-04-28T16:23:17.741Z,14.20
2019-04-28T16:26:23.032Z,14.20
2019-04-28T16:29:27.911Z,14.10
2019-04-28T16:32:32.636Z,14.00
2019-04-28T16:35:37.119Z,13.80
2019-04-28T16:38:41.793Z,13.60
2019-04-28T16:41:46.240Z,13.40
2019-04-28T16:44:50.948Z,13.30
2019-04-28T16:47:55.683Z,13.20
2019-04-28T16:51:00.123Z,13.20
2019-04-28T16:54:04.624Z,13.10
2019-04-28T16:57:10.785Z,13.10
2019-04-28T17:00:20.050Z,13.00
2019-04-28T17:03:24.759Z,12.90
2019-04-28T17:06:29.210Z,12.70
2019-04-28T17:09:33.910Z,12.50
2019-04-28T17:12:38.353Z,12.40
2019-04-28T17:15:43.062Z,12.40
2019-04-28T17:18:47.499Z,12.40
2019-04-28T17:21:51.940Z,12.30
2019-04-28T17:24:56.375Z,12.20
2019-04-28T17:28:00.823Z,12.20
2019-04-28T17:31:06.339Z,12.20
2019-04-28T17:34:10.848Z,12.10
2019-04-28T17:37:16.259Z,12.10
2019-04-28T17:40:22.331Z,12.10
2019-04-28T17:43:26.782Z,12.00
2019-04-28T17:46:31.227Z,12.00
2019-04-28T17:49:37.667Z,12.00
2019-04-28T17:52:42.111Z,12.00
2019-04-28T17:55:46.544Z,11.80
2019-04-28T17:58:50.993Z,11.80
2019-04-28T18:02:04.248Z,11.60
2019-04-28T18:05:26.398Z,11.50
2019-04-28T18:08:32.808Z,11.40
2019-04-28T18:11:37.421Z,11.30
2019-04-28T18:14:43.778Z,11.30
2019-04-28T18:17:50.150Z,11.30
2019-04-28T18:20:54.872Z,11.20
2019-04-28T18:23:59.605Z,11.00
2019-04-28T18:27:04.049Z,10.80
2019-04-28T18:30:08.549Z,10.70
2019-04-28T18:33:31.023Z,10.70
2019-04-28T18:36:37.103Z,10.60
2019-04-28T18:39:59.608Z,10.60
2019-04-28T18:43:05.692Z,10.50
2019-04-28T18:46:10.403Z,10.60
2019-04-28T18:49:14.848Z,10.60
2019-04-28T18:52:19.320Z,10.60
2019-04-28T18:55:23.757Z,10.50
2019-04-28T18:58:28.506Z,10.30
2019-04-28T19:01:37.160Z,10.30
2019-04-28T19:04:41.604Z,10.20
2019-04-28T19:07:48.759Z,10.10
2019-04-28T19:11:10.062Z,10.00
2019-04-28T19:14:16.142Z,9.90
2019-04-28T19:17:22.201Z,9.80
2019-04-28T19:20:27.013Z,9.70
2019-04-28T19:23:31.758Z,9.70
2019-04-28T19:26:36.187Z,9.70
2019-04-28T19:29:40.620Z,9.70
2019-04-28T19:32:45.322Z,9.70
2019-04-28T19:35:49.927Z,9.60
2019-04-28T19:39:03.135Z,9.60
2019-04-28T19:42:00.837Z,9.60
2019-04-28T19:45:11.767Z,9.50
2019-04-28T19:48:15.234Z,9.60
2019-04-28T19:51:31.260Z,9.60
2019-04-28T19:54:28.179Z,9.50
2019-04-28T19:57:40.158Z,9.30
2019-04-28T20:00:46.227Z,9.30
2019-04-28T20:03:50.658Z,9.30
2019-04-28T20:06:55.083Z,9.30
2019-04-28T20:09:59.913Z,9.30
2019-04-28T20:13:04.643Z,9.20
2019-04-28T20:16:09.073Z,9.30
2019-04-28T20:19:13.907Z,9.30
2019-04-28T20:22:18.329Z,9.30
2019-04-28T20:25:22.761Z,9.40
2019-04-28T20:28:27.478Z,9.50
2019-04-28T20:31:31.915Z,9.40
2019-04-28T20:34:36.346Z,9.40
2019-04-28T20:37:42.804Z,9.30
2019-04-28T20:41:07.698Z,9.20
2019-04-28T20:44:12.430Z,9.20
2019-04-28T20:47:16.865Z,9.20
2019-04-28T20:50:23.448Z,9.20
2019-04-28T20:53:28.157Z,9.10
2019-04-28T20:56:32.621Z,9.10
2019-04-28T20:59:37.314Z,9.00
2019-04-28T21:02:42.048Z,8.90
2019-04-28T21:05:46.479Z,8.80
2019-04-28T21:08:51.201Z,8.70
2019-04-28T21:11:55.641Z,8.60
2019-04-28T21:15:00.088Z,8.40
2019-04-28T21:18:04.886Z,8.30
2019-04-28T21:21:09.622Z,8.20
2019-04-28T21:24:16.943Z,8.10
2019-04-28T21:27:20.503Z,7.90
2019-04-28T21:30:25.240Z,8.00
2019-04-28T21:33:29.976Z,7.90
2019-04-28T21:36:34.419Z,7.80
2019-04-28T21:39:39.127Z,7.70
2019-04-28T21:43:01.676Z,7.50
2019-04-28T21:46:26.167Z,7.40
2019-04-28T21:49:34.736Z,7.30
2019-04-28T21:52:39.166Z,7.20
2019-04-28T21:55:43.948Z,7.20
2019-04-28T21:58:48.694Z,7.20
2019-04-28T22:01:53.132Z,7.20
2019-04-28T22:04:57.831Z,7.20
2019-04-28T22:08:02.276Z,7.20
2019-04-28T22:11:06.703Z,7.20
2019-04-28T22:14:11.519Z,7.10
2019-04-28T22:17:16.294Z,7.10
2019-04-28T22:20:20.972Z,7.10
2019-04-28T22:23:29.538Z,7.10
2019-04-28T22:26:44.383Z,7.00
2019-04-28T22:29:48.808Z,6.90
2019-04-28T22:32:53.517Z,6.80
2019-04-28T22:35:58.244Z,6.70
2019-04-28T22:39:02.979Z,6.80
2019-04-28T22:42:07.704Z,6.80
2019-04-28T22:45:12.884Z,6.80
2019-04-28T22:48:22.376Z,6.80
2019-04-28T22:51:27.120Z,6.80
2019-04-28T22:54:38.866Z,6.90
2019-04-28T22:57:51.229Z,6.80
2019-04-28T23:01:03.434Z,6.70
2019-04-28T23:04:12.262Z,6.70
2019-04-28T23:07:16.693Z,6.70
2019-04-28T23:10:21.122Z,6.60
2019-04-28T23:13:25.842Z,6.50
2019-04-28T23:16:30.563Z,6.60
2019-04-28T23:19:36.937Z,6.50
2019-04-28T23:22:47.018Z,6.50
2019-04-28T23:25:49.456Z,6.50
2019-04-28T23:28:54.199Z,6.40
2019-04-28T23:31:58.621Z,6.40
2019-04-28T23:35:03.526Z,6.30
2019-04-28T23:38:08.037Z,6.30
2019-04-28T23:41:14.349Z,6.20
2019-04-28T23:44:18.783Z,6.20
2019-04-28T23:47:23.384Z,6.10
2019-04-28T23:50:30.023Z,6.10
2019-04-28T23:53:52.163Z,6.10
2019-04-28T23:56:56.846Z,6.10
